sensor_id;sensor_type;location;lat;lon;timestamp;P1;durP1;ratioP1;P2;durP2;ratioP2
31386;SDS011;69978;50.096;8.448;2024-03-23T00:54:47;31.15;;;11.65;;
31386;SDS011;69978;50.096;8.448;2024-03-23T00:57:12;29.70;;;10.88;;
31386;SDS011;69978;50.096;8.448;2024-03-23T00:59:38;33.08;;;11.10;;
31386;SDS011;69978;50.096;8.448;2024-03-23T01:02:03;29.42;;;11.80;;
31386;SDS011;69978;50.096;8.448;2024-03-23T01:04:29;27.98;;;9.73;;
31386;SDS011;69978;50.096;8.448;2024-03-23T01:06:55;29.48;;;9.98;;
31386;SDS011;69978;50.096;8.448;2024-03-23T01:09:20;27.33;;;10.15;;
31386;SDS011;69978;50.096;8.448;2024-03-23T01:11:47;25.50;;;9.43;;
31386;SDS011;69978;50.096;8.448;2024-03-23T01:14:13;27.90;;;10.18;;
31386;SDS011;69978;50.096;8.448;2024-03-23T01:16:39;26.00;;;9.15;;
31386;SDS011;69978;50.096;8.448;2024-03-23T01:19:04;24.42;;;9.18;;
31386;SDS011;69978;50.096;8.448;2024-03-23T01:21:31;26.15;;;9.57;;
31386;SDS011;69978;50.096;8.448;2024-03-23T01:23:56;22.73;;;8.50;;
31386;SDS011;69978;50.096;8.448;2024-03-23T01:26:22;24.77;;;9.70;;
31386;SDS011;69978;50.096;8.448;2024-03-23T01:28:48;25.50;;;9.50;;
31386;SDS011;69978;50.096;8.448;2024-03-23T01:31:13;24.92;;;9.02;;
31386;SDS011;69978;50.096;8.448;2024-03-23T01:33:40;27.00;;;9.80;;
31386;SDS011;69978;50.096;8.448;2024-03-23T01:36:05;26.83;;;10.00;;
31386;SDS011;69978;50.096;8.448;2024-03-23T01:38:31;24.15;;;8.93;;
31386;SDS011;69978;50.096;8.448;2024-03-23T01:40:57;20.63;;;8.20;;
31386;SDS011;69978;50.096;8.448;2024-03-23T01:43:22;27.58;;;9.73;;
31386;SDS011;69978;50.096;8.448;2024-03-23T01:45:48;25.20;;;9.63;;
31386;SDS011;69978;50.096;8.448;2024-03-23T01:48:14;24.55;;;9.48;;
31386;SDS011;69978;50.096;8.448;2024-03-23T01:50:39;25.42;;;9.07;;
31386;SDS011;69978;50.096;8.448;2024-03-23T01:53:05;20.50;;;8.13;;
31386;SDS011;69978;50.096;8.448;2024-03-23T01:55:34;19.73;;;8.80;;
31386;SDS011;69978;50.096;8.448;2024-03-23T01:58:00;21.35;;;8.68;;
31386;SDS011;69978;50.096;8.448;2024-03-23T02:00:25;21.45;;;7.97;;
31386;SDS011;69978;50.096;8.448;2024-03-23T02:02:53;23.38;;;7.80;;
31386;SDS011;69978;50.096;8.448;2024-03-23T02:05:18;20.45;;;7.80;;
31386;SDS011;69978;50.096;8.448;2024-03-23T02:07:44;19.35;;;7.97;;
31386;SDS011;69978;50.096;8.448;2024-03-23T02:10:10;18.20;;;7.50;;
31386;SDS011;69978;50.096;8.448;2024-03-23T02:12:38;21.60;;;7.65;;
31386;SDS011;69978;50.096;8.448;2024-03-23T02:15:04;22.48;;;7.80;;
31386;SDS011;69978;50.096;8.448;2024-03-23T02:17:31;22.90;;;7.88;;
31386;SDS011;69978;50.096;8.448;2024-03-23T02:19:59;18.02;;;7.70;;
31386;SDS011;69978;50.096;8.448;2024-03-23T02:22:25;22.77;;;7.93;;
31386;SDS011;69978;50.096;8.448;2024-03-23T02:24:50;18.08;;;7.40;;
31386;SDS011;69978;50.096;8.448;2024-03-23T02:27:16;19.55;;;7.45;;
31386;SDS011;69978;50.096;8.448;2024-03-23T02:29:44;21.17;;;7.97;;
31386;SDS011;69978;50.096;8.448;2024-03-23T02:32:10;19.90;;;7.68;;
31386;SDS011;69978;50.096;8.448;2024-03-23T02:34:36;20.35;;;8.10;;
31386;SDS011;69978;50.096;8.448;2024-03-23T02:37:01;23.83;;;9.07;;
31386;SDS011;69978;50.096;8.448;2024-03-23T02:39:27;22.38;;;8.43;;
31386;SDS011;69978;50.096;8.448;2024-03-23T02:41:53;26.33;;;8.00;;
31386;SDS011;69978;50.096;8.448;2024-03-23T02:44:18;24.58;;;7.85;;
31386;SDS011;69978;50.096;8.448;2024-03-23T02:46:44;25.10;;;8.18;;
31386;SDS011;69978;50.096;8.448;2024-03-23T02:49:09;22.75;;;8.20;;
31386;SDS011;69978;50.096;8.448;2024-03-23T02:51:35;20.67;;;7.80;;
31386;SDS011;69978;50.096;8.448;2024-03-23T02:54:00;22.20;;;8.38;;
31386;SDS011;69978;50.096;8.448;2024-03-23T02:56:26;19.85;;;7.03;;
31386;SDS011;69978;50.096;8.448;2024-03-23T02:58:51;20.48;;;7.32;;
31386;SDS011;69978;50.096;8.448;2024-03-23T03:01:17;24.05;;;8.50;;
31386;SDS011;69978;50.096;8.448;2024-03-23T03:03:43;19.80;;;8.10;;
31386;SDS011;69978;50.096;8.448;2024-03-23T03:06:09;27.42;;;8.93;;
31386;SDS011;69978;50.096;8.448;2024-03-23T03:08:35;24.08;;;8.38;;
31386;SDS011;69978;50.096;8.448;2024-03-23T03:11:00;25.92;;;8.85;;
31386;SDS011;69978;50.096;8.448;2024-03-23T03:13:27;24.85;;;9.40;;
31386;SDS011;69978;50.096;8.448;2024-03-23T03:15:52;25.80;;;9.00;;
31386;SDS011;69978;50.096;8.448;2024-03-23T03:18:18;22.52;;;8.30;;
31386;SDS011;69978;50.096;8.448;2024-03-23T03:20:44;21.58;;;8.98;;
31386;SDS011;69978;50.096;8.448;2024-03-23T03:23:10;23.70;;;8.70;;
31386;SDS011;69978;50.096;8.448;2024-03-23T03:25:36;24.58;;;9.15;;
31386;SDS011;69978;50.096;8.448;2024-03-23T03:28:01;28.20;;;9.23;;
31386;SDS011;69978;50.096;8.448;2024-03-23T03:30:29;27.75;;;8.80;;
31386;SDS011;69978;50.096;8.448;2024-03-23T03:32:54;24.45;;;9.35;;
31386;SDS011;69978;50.096;8.448;2024-03-23T03:35:20;25.75;;;8.90;;
31386;SDS011;69978;50.096;8.448;2024-03-23T03:37:46;23.95;;;9.07;;
31386;SDS011;69978;50.096;8.448;2024-03-23T03:40:11;22.95;;;9.30;;
31386;SDS011;69978;50.096;8.448;2024-03-23T03:42:39;27.38;;;9.57;;
31386;SDS011;69978;50.096;8.448;2024-03-23T03:45:06;24.92;;;9.40;;
31386;SDS011;69978;50.096;8.448;2024-03-23T03:47:32;28.77;;;9.35;;
31386;SDS011;69978;50.096;8.448;2024-03-23T03:49:57;23.60;;;8.60;;
31386;SDS011;69978;50.096;8.448;2024-03-23T03:52:23;30.02;;;8.77;;
31386;SDS011;69978;50.096;8.448;2024-03-23T03:54:48;23.45;;;8.00;;
31386;SDS011;69978;50.096;8.448;2024-03-23T03:57:14;22.60;;;8.00;;
31386;SDS011;69978;50.096;8.448;2024-03-23T03:59:39;20.70;;;6.97;;
31386;SDS011;69978;50.096;8.448;2024-03-23T04:02:05;12.23;;;4.55;;
31386;SDS011;69978;50.096;8.448;2024-03-23T04:04:30;8.60;;;2.88;;
31386;SDS011;69978;50.096;8.448;2024-03-23T04:07:02;4.70;;;1.83;;
31386;SDS011;69978;50.096;8.448;2024-03-23T04:09:30;5.28;;;2.05;;
31386;SDS011;69978;50.096;8.448;2024-03-23T04:11:56;2.92;;;1.23;;
31386;SDS011;69978;50.096;8.448;2024-03-23T04:14:21;1.50;;;0.68;;
31386;SDS011;69978;50.096;8.448;2024-03-23T04:16:47;2.17;;;0.70;;
31386;SDS011;69978;50.096;8.448;2024-03-23T04:19:12;1.13;;;0.30;;
31386;SDS011;69978;50.096;8.448;2024-03-23T04:21:38;2.30;;;0.47;;
31386;SDS011;69978;50.096;8.448;2024-03-23T04:24:04;0.85;;;0.40;;
31386;SDS011;69978;50.096;8.448;2024-03-23T04:26:30;2.45;;;0.60;;
31386;SDS011;69978;50.096;8.448;2024-03-23T04:28:55;0.47;;;0.20;;
31386;SDS011;69978;50.096;8.448;2024-03-23T04:31:21;0.57;;;0.22;;
31386;SDS011;69978;50.096;8.448;2024-03-23T04:33:46;1.27;;;0.50;;
31386;SDS011;69978;50.096;8.448;2024-03-23T04:36:12;0.82;;;0.28;;
31386;SDS011;69978;50.096;8.448;2024-03-23T04:38:38;3.15;;;0.60;;
31386;SDS011;69978;50.096;8.448;2024-03-23T04:41:03;0.50;;;0.20;;
31386;SDS011;69978;50.096;8.448;2024-03-23T04:43:29;0.60;;;0.20;;
31386;SDS011;69978;50.096;8.448;2024-03-23T04:45:54;0.60;;;0.25;;
31386;SDS011;69978;50.096;8.448;2024-03-23T04:48:20;0.38;;;0.20;;
31386;SDS011;69978;50.096;8.448;2024-03-23T04:50:47;0.55;;;0.10;;
31386;SDS011;69978;50.096;8.448;2024-03-23T04:53:14;1.20;;;0.10;;
31386;SDS011;69978;50.096;8.448;2024-03-23T04:55:41;0.32;;;0.10;;
31386;SDS011;69978;50.096;8.448;2024-03-23T04:58:07;1.65;;;0.10;;
31386;SDS011;69978;50.096;8.448;2024-03-23T05:00:32;1.67;;;0.20;;
31386;SDS011;69978;50.096;8.448;2024-03-23T05:02:58;0.65;;;0.25;;
31386;SDS011;69978;50.096;8.448;2024-03-23T05:05:24;1.60;;;0.30;;
31386;SDS011;69978;50.096;8.448;2024-03-23T05:07:49;1.10;;;0.35;;
31386;SDS011;69978;50.096;8.448;2024-03-23T05:10:15;1.15;;;0.40;;
31386;SDS011;69978;50.096;8.448;2024-03-23T05:12:41;0.60;;;0.22;;
31386;SDS011;69978;50.096;8.448;2024-03-23T05:15:07;2.30;;;0.40;;
31386;SDS011;69978;50.096;8.448;2024-03-23T05:17:32;1.00;;;0.40;;
31386;SDS011;69978;50.096;8.448;2024-03-23T05:19:59;1.65;;;0.40;;
31386;SDS011;69978;50.096;8.448;2024-03-23T05:22:24;1.02;;;0.50;;
31386;SDS011;69978;50.096;8.448;2024-03-23T05:24:50;0.90;;;0.30;;
31386;SDS011;69978;50.096;8.448;2024-03-23T05:27:16;1.52;;;0.40;;
31386;SDS011;69978;50.096;8.448;2024-03-23T05:29:41;1.23;;;0.50;;
31386;SDS011;69978;50.096;8.448;2024-03-23T05:32:07;2.70;;;0.45;;
31386;SDS011;69978;50.096;8.448;2024-03-23T05:34:32;1.63;;;0.40;;
31386;SDS011;69978;50.096;8.448;2024-03-23T05:36:58;1.77;;;0.77;;
31386;SDS011;69978;50.096;8.448;2024-03-23T05:39:24;1.67;;;0.40;;
31386;SDS011;69978;50.096;8.448;2024-03-23T05:41:50;0.65;;;0.20;;
31386;SDS011;69978;50.096;8.448;2024-03-23T05:44:15;0.65;;;0.22;;
31386;SDS011;69978;50.096;8.448;2024-03-23T05:46:41;0.63;;;0.20;;
31386;SDS011;69978;50.096;8.448;2024-03-23T05:49:08;0.70;;;0.20;;
31386;SDS011;69978;50.096;8.448;2024-03-23T05:51:34;0.35;;;0.20;;
31386;SDS011;69978;50.096;8.448;2024-03-23T05:53:59;0.30;;;0.10;;
31386;SDS011;69978;50.096;8.448;2024-03-23T05:56:27;0.28;;;0.10;;
31386;SDS011;69978;50.096;8.448;2024-03-23T05:58:53;3.22;;;0.45;;
31386;SDS011;69978;50.096;8.448;2024-03-23T06:01:18;0.95;;;0.10;;
31386;SDS011;69978;50.096;8.448;2024-03-23T06:03:44;0.65;;;0.10;;
31386;SDS011;69978;50.096;8.448;2024-03-23T06:06:10;0.38;;;0.10;;
31386;SDS011;69978;50.096;8.448;2024-03-23T06:08:37;0.15;;;0.10;;
31386;SDS011;69978;50.096;8.448;2024-03-23T06:11:03;0.20;;;0.00;;
31386;SDS011;69978;50.096;8.448;2024-03-23T06:13:31;0.30;;;0.10;;
31386;SDS011;69978;50.096;8.448;2024-03-23T06:15:57;0.73;;;0.20;;
31386;SDS011;69978;50.096;8.448;2024-03-23T06:18:23;0.40;;;0.10;;
31386;SDS011;69978;50.096;8.448;2024-03-23T06:20:49;0.95;;;0.10;;
31386;SDS011;69978;50.096;8.448;2024-03-23T06:23:14;0.63;;;0.10;;
31386;SDS011;69978;50.096;8.448;2024-03-23T06:25:42;0.28;;;0.13;;
31386;SDS011;69978;50.096;8.448;2024-03-23T06:28:07;0.10;;;0.10;;
31386;SDS011;69978;50.096;8.448;2024-03-23T06:30:33;0.77;;;0.10;;
31386;SDS011;69978;50.096;8.448;2024-03-23T06:32:59;0.10;;;0.00;;
31386;SDS011;69978;50.096;8.448;2024-03-23T06:35:24;0.52;;;0.10;;
31386;SDS011;69978;50.096;8.448;2024-03-23T06:37:50;0.63;;;0.10;;
31386;SDS011;69978;50.096;8.448;2024-03-23T06:40:16;0.52;;;0.10;;
31386;SDS011;69978;50.096;8.448;2024-03-23T06:42:41;1.40;;;0.28;;
31386;SDS011;69978;50.096;8.448;2024-03-23T06:45:07;1.00;;;0.10;;
31386;SDS011;69978;50.096;8.448;2024-03-23T06:47:32;0.60;;;0.00;;
31386;SDS011;69978;50.096;8.448;2024-03-23T06:50:02;0.55;;;0.20;;
31386;SDS011;69978;50.096;8.448;2024-03-23T06:52:28;1.80;;;0.30;;
31386;SDS011;69978;50.096;8.448;2024-03-23T06:54:55;2.90;;;0.35;;
31386;SDS011;69978;50.096;8.448;2024-03-23T06:57:20;6.57;;;0.40;;
31386;SDS011;69978;50.096;8.448;2024-03-23T06:59:46;3.17;;;0.35;;
31386;SDS011;69978;50.096;8.448;2024-03-23T07:02:12;2.28;;;0.40;;
31386;SDS011;69978;50.096;8.448;2024-03-23T07:04:38;2.80;;;0.30;;
31386;SDS011;69978;50.096;8.448;2024-03-23T07:07:06;0.57;;;0.20;;
31386;SDS011;69978;50.096;8.448;2024-03-23T07:09:32;1.75;;;0.30;;
31386;SDS011;69978;50.096;8.448;2024-03-23T07:12:00;3.03;;;0.32;;
31386;SDS011;69978;50.096;8.448;2024-03-23T07:14:25;8.52;;;0.60;;
31386;SDS011;69978;50.096;8.448;2024-03-23T07:16:51;1.75;;;0.40;;
31386;SDS011;69978;50.096;8.448;2024-03-23T07:19:17;2.40;;;0.50;;
31386;SDS011;69978;50.096;8.448;2024-03-23T07:21:43;6.00;;;0.77;;
31386;SDS011;69978;50.096;8.448;2024-03-23T07:24:09;4.03;;;0.40;;
31386;SDS011;69978;50.096;8.448;2024-03-23T07:26:35;5.90;;;0.70;;
31386;SDS011;69978;50.096;8.448;2024-03-23T07:29:01;5.07;;;0.80;;
31386;SDS011;69978;50.096;8.448;2024-03-23T07:31:27;5.97;;;0.80;;
31386;SDS011;69978;50.096;8.448;2024-03-23T07:33:52;4.97;;;0.90;;
31386;SDS011;69978;50.096;8.448;2024-03-23T07:36:18;4.03;;;1.00;;
31386;SDS011;69978;50.096;8.448;2024-03-23T07:38:44;7.07;;;1.00;;
31386;SDS011;69978;50.096;8.448;2024-03-23T07:41:16;8.23;;;1.60;;
31386;SDS011;69978;50.096;8.448;2024-03-23T07:43:44;4.65;;;1.27;;
31386;SDS011;69978;50.096;8.448;2024-03-23T07:46:10;6.53;;;1.30;;
31386;SDS011;69978;50.096;8.448;2024-03-23T07:48:37;9.77;;;1.58;;
31386;SDS011;69978;50.096;8.448;2024-03-23T07:53:29;7.65;;;1.60;;
31386;SDS011;69978;50.096;8.448;2024-03-23T07:55:57;5.82;;;1.45;;
31386;SDS011;69978;50.096;8.448;2024-03-23T07:58:24;3.25;;;1.13;;
31386;SDS011;69978;50.096;8.448;2024-03-23T08:01:02;4.07;;;0.98;;
31386;SDS011;69978;50.096;8.448;2024-03-23T08:03:38;3.22;;;1.00;;
31386;SDS011;69978;50.096;8.448;2024-03-23T08:08:41;4.90;;;1.23;;
31386;SDS011;69978;50.096;8.448;2024-03-23T08:11:08;6.63;;;1.08;;
31386;SDS011;69978;50.096;8.448;2024-03-23T08:13:34;4.07;;;1.13;;
31386;SDS011;69978;50.096;8.448;2024-03-23T08:16:00;4.47;;;1.00;;
31386;SDS011;69978;50.096;8.448;2024-03-23T08:18:27;4.93;;;1.20;;
31386;SDS011;69978;50.096;8.448;2024-03-23T08:21:00;7.00;;;1.23;;
31386;SDS011;69978;50.096;8.448;2024-03-23T08:23:30;7.25;;;1.30;;
31386;SDS011;69978;50.096;8.448;2024-03-23T08:26:01;7.03;;;1.30;;
31386;SDS011;69978;50.096;8.448;2024-03-23T08:28:31;4.63;;;1.25;;
31386;SDS011;69978;50.096;8.448;2024-03-23T08:31:01;6.03;;;1.08;;
31386;SDS011;69978;50.096;8.448;2024-03-23T08:33:28;7.43;;;1.23;;
31386;SDS011;69978;50.096;8.448;2024-03-23T08:35:55;7.55;;;1.00;;
31386;SDS011;69978;50.096;8.448;2024-03-23T08:38:25;6.90;;;1.10;;
31386;SDS011;69978;50.096;8.448;2024-03-23T08:43:24;10.00;;;1.10;;
31386;SDS011;69978;50.096;8.448;2024-03-23T08:45:50;6.40;;;1.00;;
31386;SDS011;69978;50.096;8.448;2024-03-23T08:48:15;6.45;;;0.98;;
31386;SDS011;69978;50.096;8.448;2024-03-23T08:50:41;8.20;;;1.48;;
31386;SDS011;69978;50.096;8.448;2024-03-23T08:53:07;12.05;;;1.13;;
31386;SDS011;69978;50.096;8.448;2024-03-23T08:55:33;7.57;;;1.27;;
31386;SDS011;69978;50.096;8.448;2024-03-23T08:57:59;8.27;;;1.30;;
31386;SDS011;69978;50.096;8.448;2024-03-23T09:00:25;5.93;;;1.08;;
31386;SDS011;69978;50.096;8.448;2024-03-23T09:02:51;10.82;;;1.27;;
31386;SDS011;69978;50.096;8.448;2024-03-23T09:05:16;9.50;;;1.27;;
31386;SDS011;69978;50.096;8.448;2024-03-23T09:07:42;6.57;;;1.23;;
31386;SDS011;69978;50.096;8.448;2024-03-23T09:10:08;9.60;;;1.58;;
31386;SDS011;69978;50.096;8.448;2024-03-23T09:12:33;8.93;;;1.33;;
31386;SDS011;69978;50.096;8.448;2024-03-23T09:14:59;9.75;;;1.58;;
31386;SDS011;69978;50.096;8.448;2024-03-23T09:17:24;8.18;;;1.08;;
31386;SDS011;69978;50.096;8.448;2024-03-23T09:19:50;5.53;;;1.13;;
31386;SDS011;69978;50.096;8.448;2024-03-23T09:22:15;6.95;;;1.02;;
31386;SDS011;69978;50.096;8.448;2024-03-23T09:24:41;7.22;;;0.80;;
31386;SDS011;69978;50.096;8.448;2024-03-23T09:27:10;13.10;;;1.38;;
31386;SDS011;69978;50.096;8.448;2024-03-23T09:29:35;8.35;;;1.35;;
31386;SDS011;69978;50.096;8.448;2024-03-23T09:32:01;10.52;;;1.00;;
31386;SDS011;69978;50.096;8.448;2024-03-23T09:34:26;13.20;;;1.25;;
31386;SDS011;69978;50.096;8.448;2024-03-23T09:36:52;8.02;;;1.00;;
31386;SDS011;69978;50.096;8.448;2024-03-23T09:39:18;9.07;;;1.00;;
31386;SDS011;69978;50.096;8.448;2024-03-23T09:41:44;5.53;;;0.90;;
31386;SDS011;69978;50.096;8.448;2024-03-23T09:44:10;7.55;;;0.80;;
31386;SDS011;69978;50.096;8.448;2024-03-23T09:46:36;7.38;;;0.85;;
31386;SDS011;69978;50.096;8.448;2024-03-23T09:49:03;5.13;;;0.57;;
31386;SDS011;69978;50.096;8.448;2024-03-23T09:51:30;5.00;;;0.85;;
31386;SDS011;69978;50.096;8.448;2024-03-23T09:53:56;5.10;;;0.70;;
31386;SDS011;69978;50.096;8.448;2024-03-23T09:56:22;7.07;;;0.70;;
31386;SDS011;69978;50.096;8.448;2024-03-23T09:58:49;6.35;;;0.80;;
31386;SDS011;69978;50.096;8.448;2024-03-23T10:01:14;4.13;;;0.30;;
31386;SDS011;69978;50.096;8.448;2024-03-23T10:03:43;10.30;;;0.80;;
31386;SDS011;69978;50.096;8.448;2024-03-23T10:06:10;5.00;;;0.65;;
31386;SDS011;69978;50.096;8.448;2024-03-23T10:08:35;6.55;;;0.80;;
31386;SDS011;69978;50.096;8.448;2024-03-23T10:11:12;7.53;;;0.70;;
31386;SDS011;69978;50.096;8.448;2024-03-23T10:13:41;2.92;;;0.40;;
31386;SDS011;69978;50.096;8.448;2024-03-23T10:16:08;7.38;;;0.50;;
31386;SDS011;69978;50.096;8.448;2024-03-23T10:18:37;2.30;;;0.30;;
31386;SDS011;69978;50.096;8.448;2024-03-23T10:21:08;6.10;;;0.82;;
31386;SDS011;69978;50.096;8.448;2024-03-23T10:23:36;5.00;;;0.50;;
31386;SDS011;69978;50.096;8.448;2024-03-23T10:26:12;4.88;;;0.50;;
31386;SDS011;69978;50.096;8.448;2024-03-23T10:31:26;6.25;;;0.50;;
31386;SDS011;69978;50.096;8.448;2024-03-23T10:33:58;3.90;;;0.55;;
31386;SDS011;69978;50.096;8.448;2024-03-23T10:36:26;6.72;;;0.68;;
31386;SDS011;69978;50.096;8.448;2024-03-23T10:38:54;5.22;;;0.65;;
31386;SDS011;69978;50.096;8.448;2024-03-23T10:41:20;5.25;;;0.50;;
31386;SDS011;69978;50.096;8.448;2024-03-23T10:43:46;4.30;;;0.50;;
31386;SDS011;69978;50.096;8.448;2024-03-23T10:46:13;4.60;;;0.38;;
31386;SDS011;69978;50.096;8.448;2024-03-23T10:48:39;8.70;;;0.65;;
31386;SDS011;69978;50.096;8.448;2024-03-23T10:51:08;2.60;;;0.30;;
31386;SDS011;69978;50.096;8.448;2024-03-23T10:53:35;3.50;;;0.43;;
31386;SDS011;69978;50.096;8.448;2024-03-23T10:56:04;2.90;;;0.50;;
31386;SDS011;69978;50.096;8.448;2024-03-23T10:58:31;4.18;;;0.40;;
31386;SDS011;69978;50.096;8.448;2024-03-23T11:01:03;1.92;;;0.35;;
31386;SDS011;69978;50.096;8.448;2024-03-23T11:06:04;5.40;;;0.50;;
31386;SDS011;69978;50.096;8.448;2024-03-23T11:08:39;4.75;;;0.30;;
31386;SDS011;69978;50.096;8.448;2024-03-23T11:13:48;13.10;;;0.60;;
31386;SDS011;69978;50.096;8.448;2024-03-23T11:16:25;7.82;;;0.80;;
31386;SDS011;69978;50.096;8.448;2024-03-23T11:19:33;9.02;;;0.70;;
31386;SDS011;69978;50.096;8.448;2024-03-23T11:22:05;4.60;;;0.60;;
31386;SDS011;69978;50.096;8.448;2024-03-23T11:24:33;10.45;;;0.80;;
31386;SDS011;69978;50.096;8.448;2024-03-23T11:26:59;2.75;;;0.35;;
31386;SDS011;69978;50.096;8.448;2024-03-23T11:29:31;6.60;;;1.25;;
31386;SDS011;69978;50.096;8.448;2024-03-23T11:31:57;5.18;;;1.00;;
31386;SDS011;69978;50.096;8.448;2024-03-23T11:34:24;7.15;;;0.90;;
31386;SDS011;69978;50.096;8.448;2024-03-23T11:36:49;5.43;;;0.60;;
31386;SDS011;69978;50.096;8.448;2024-03-23T11:39:18;6.93;;;0.75;;
31386;SDS011;69978;50.096;8.448;2024-03-23T11:46:49;5.75;;;0.77;;
31386;SDS011;69978;50.096;8.448;2024-03-23T11:49:25;7.32;;;0.82;;
31386;SDS011;69978;50.096;8.448;2024-03-23T11:51:52;3.85;;;0.77;;
31386;SDS011;69978;50.096;8.448;2024-03-23T11:54:20;6.00;;;0.98;;
31386;SDS011;69978;50.096;8.448;2024-03-23T11:59:35;4.20;;;1.02;;
31386;SDS011;69978;50.096;8.448;2024-03-23T12:02:21;3.60;;;0.93;;
31386;SDS011;69978;50.096;8.448;2024-03-23T12:04:46;6.15;;;0.77;;
31386;SDS011;69978;50.096;8.448;2024-03-23T12:07:15;5.65;;;0.68;;
31386;SDS011;69978;50.096;8.448;2024-03-23T12:10:04;6.18;;;0.75;;
31386;SDS011;69978;50.096;8.448;2024-03-23T12:12:33;3.67;;;0.52;;
31386;SDS011;69978;50.096;8.448;2024-03-23T12:15:06;3.83;;;0.60;;
31386;SDS011;69978;50.096;8.448;2024-03-23T12:17:33;5.78;;;0.70;;
31386;SDS011;69978;50.096;8.448;2024-03-23T12:20:03;6.97;;;0.70;;
31386;SDS011;69978;50.096;8.448;2024-03-23T12:22:30;7.68;;;1.33;;
31386;SDS011;69978;50.096;8.448;2024-03-23T12:25:00;6.53;;;0.70;;
31386;SDS011;69978;50.096;8.448;2024-03-23T12:27:25;4.75;;;0.80;;
31386;SDS011;69978;50.096;8.448;2024-03-23T12:29:51;6.05;;;1.20;;
31386;SDS011;69978;50.096;8.448;2024-03-23T12:32:18;5.38;;;0.98;;
31386;SDS011;69978;50.096;8.448;2024-03-23T12:34:45;8.75;;;1.30;;
31386;SDS011;69978;50.096;8.448;2024-03-23T12:37:12;12.57;;;1.35;;
31386;SDS011;69978;50.096;8.448;2024-03-23T12:39:44;7.35;;;1.33;;
31386;SDS011;69978;50.096;8.448;2024-03-23T12:42:10;6.20;;;0.85;;
31386;SDS011;69978;50.096;8.448;2024-03-23T12:44:39;6.72;;;0.90;;
31386;SDS011;69978;50.096;8.448;2024-03-23T12:47:04;10.30;;;1.10;;
31386;SDS011;69978;50.096;8.448;2024-03-23T12:49:30;5.40;;;0.68;;
31386;SDS011;69978;50.096;8.448;2024-03-23T12:51:56;4.70;;;0.68;;
31386;SDS011;69978;50.096;8.448;2024-03-23T12:54:22;2.08;;;0.60;;
31386;SDS011;69978;50.096;8.448;2024-03-23T12:56:48;3.97;;;0.70;;
31386;SDS011;69978;50.096;8.448;2024-03-23T12:59:14;6.28;;;0.47;;
31386;SDS011;69978;50.096;8.448;2024-03-23T13:01:41;3.28;;;0.50;;
31386;SDS011;69978;50.096;8.448;2024-03-23T13:04:06;3.00;;;0.30;;
31386;SDS011;69978;50.096;8.448;2024-03-23T13:06:33;2.03;;;0.35;;
31386;SDS011;69978;50.096;8.448;2024-03-23T13:09:00;1.13;;;0.20;;
31386;SDS011;69978;50.096;8.448;2024-03-23T13:11:26;2.20;;;0.20;;
31386;SDS011;69978;50.096;8.448;2024-03-23T13:13:53;1.73;;;0.20;;
31386;SDS011;69978;50.096;8.448;2024-03-23T13:16:18;1.58;;;0.20;;
31386;SDS011;69978;50.096;8.448;2024-03-23T13:18:44;2.17;;;0.10;;
31386;SDS011;69978;50.096;8.448;2024-03-23T13:21:09;2.35;;;0.10;;
31386;SDS011;69978;50.096;8.448;2024-03-23T13:23:35;0.57;;;0.10;;
31386;SDS011;69978;50.096;8.448;2024-03-23T13:26:03;0.00;;;0.00;;
31386;SDS011;69978;50.096;8.448;2024-03-23T13:28:28;1.95;;;0.30;;
31386;SDS011;69978;50.096;8.448;2024-03-23T13:30:55;1.13;;;0.10;;
31386;SDS011;69978;50.096;8.448;2024-03-23T13:33:30;2.38;;;0.10;;
31386;SDS011;69978;50.096;8.448;2024-03-23T13:35:57;1.20;;;0.20;;
31386;SDS011;69978;50.096;8.448;2024-03-23T13:38:23;2.67;;;0.20;;
31386;SDS011;69978;50.096;8.448;2024-03-23T13:40:50;2.17;;;0.20;;
31386;SDS011;69978;50.096;8.448;2024-03-23T13:43:20;4.65;;;0.20;;
31386;SDS011;69978;50.096;8.448;2024-03-23T13:45:50;0.28;;;0.10;;
31386;SDS011;69978;50.096;8.448;2024-03-23T13:48:19;1.30;;;0.20;;
31386;SDS011;69978;50.096;8.448;2024-03-23T13:50:45;1.95;;;0.10;;
31386;SDS011;69978;50.096;8.448;2024-03-23T13:53:13;3.28;;;0.25;;
31386;SDS011;69978;50.096;8.448;2024-03-23T13:55:46;1.02;;;0.10;;
31386;SDS011;69978;50.096;8.448;2024-03-23T13:58:13;0.35;;;0.10;;
31386;SDS011;69978;50.096;8.448;2024-03-23T14:00:38;2.60;;;0.10;;
31386;SDS011;69978;50.096;8.448;2024-03-23T14:03:04;1.58;;;0.10;;
31386;SDS011;69978;50.096;8.448;2024-03-23T14:05:30;0.40;;;0.10;;
31386;SDS011;69978;50.096;8.448;2024-03-23T14:07:59;1.00;;;0.10;;
31386;SDS011;69978;50.096;8.448;2024-03-23T14:10:24;1.33;;;0.10;;
31386;SDS011;69978;50.096;8.448;2024-03-23T14:12:50;2.10;;;0.20;;
31386;SDS011;69978;50.096;8.448;2024-03-23T14:15:15;1.92;;;0.10;;
31386;SDS011;69978;50.096;8.448;2024-03-23T14:17:41;3.30;;;0.20;;
31386;SDS011;69978;50.096;8.448;2024-03-23T14:20:07;0.45;;;0.10;;
31386;SDS011;69978;50.096;8.448;2024-03-23T14:22:36;0.77;;;0.08;;
31386;SDS011;69978;50.096;8.448;2024-03-23T14:25:02;0.73;;;0.10;;
31386;SDS011;69978;50.096;8.448;2024-03-23T14:27:30;1.67;;;0.17;;
31386;SDS011;69978;50.096;8.448;2024-03-23T14:29:56;0.22;;;0.00;;
31386;SDS011;69978;50.096;8.448;2024-03-23T14:32:21;1.05;;;0.10;;
31386;SDS011;69978;50.096;8.448;2024-03-23T14:34:47;0.75;;;0.10;;
31386;SDS011;69978;50.096;8.448;2024-03-23T14:37:17;1.55;;;0.20;;
31386;SDS011;69978;50.096;8.448;2024-03-23T14:39:42;0.30;;;0.00;;
31386;SDS011;69978;50.096;8.448;2024-03-23T14:42:09;1.60;;;0.08;;
31386;SDS011;69978;50.096;8.448;2024-03-23T14:44:35;1.45;;;0.20;;
31386;SDS011;69978;50.096;8.448;2024-03-23T14:47:00;1.40;;;0.10;;
31386;SDS011;69978;50.096;8.448;2024-03-23T14:49:26;3.10;;;0.20;;
31386;SDS011;69978;50.096;8.448;2024-03-23T14:51:51;0.57;;;0.10;;
31386;SDS011;69978;50.096;8.448;2024-03-23T14:54:20;0.70;;;0.10;;
31386;SDS011;69978;50.096;8.448;2024-03-23T14:56:45;0.30;;;0.00;;
31386;SDS011;69978;50.096;8.448;2024-03-23T14:59:12;2.95;;;0.20;;
31386;SDS011;69978;50.096;8.448;2024-03-23T15:01:38;0.30;;;0.05;;
31386;SDS011;69978;50.096;8.448;2024-03-23T15:04:03;1.58;;;0.10;;
31386;SDS011;69978;50.096;8.448;2024-03-23T15:06:29;0.77;;;0.30;;
31386;SDS011;69978;50.096;8.448;2024-03-23T15:08:54;0.98;;;0.17;;
31386;SDS011;69978;50.096;8.448;2024-03-23T15:11:20;0.50;;;0.10;;
31386;SDS011;69978;50.096;8.448;2024-03-23T15:13:46;1.15;;;0.25;;
31386;SDS011;69978;50.096;8.448;2024-03-23T15:16:18;0.98;;;0.10;;
31386;SDS011;69978;50.096;8.448;2024-03-23T15:18:45;1.20;;;0.15;;
31386;SDS011;69978;50.096;8.448;2024-03-23T15:21:11;1.30;;;0.10;;
31386;SDS011;69978;50.096;8.448;2024-03-23T15:23:37;1.75;;;0.10;;
31386;SDS011;69978;50.096;8.448;2024-03-23T15:26:02;2.00;;;0.10;;
31386;SDS011;69978;50.096;8.448;2024-03-23T15:28:30;1.75;;;0.05;;
31386;SDS011;69978;50.096;8.448;2024-03-23T15:31:08;5.32;;;0.10;;
31386;SDS011;69978;50.096;8.448;2024-03-23T15:33:34;1.77;;;0.10;;
31386;SDS011;69978;50.096;8.448;2024-03-23T15:36:04;0.65;;;0.10;;
31386;SDS011;69978;50.096;8.448;2024-03-23T15:38:33;3.33;;;0.20;;
31386;SDS011;69978;50.096;8.448;2024-03-23T15:40:59;4.07;;;0.20;;
31386;SDS011;69978;50.096;8.448;2024-03-23T15:43:25;0.40;;;0.10;;
31386;SDS011;69978;50.096;8.448;2024-03-23T15:45:57;2.22;;;0.10;;
31386;SDS011;69978;50.096;8.448;2024-03-23T15:48:27;1.98;;;0.20;;
31386;SDS011;69978;50.096;8.448;2024-03-23T15:50:54;2.67;;;0.50;;
31386;SDS011;69978;50.096;8.448;2024-03-23T15:53:24;1.52;;;0.30;;
31386;SDS011;69978;50.096;8.448;2024-03-23T15:56:00;1.40;;;0.10;;
31386;SDS011;69978;50.096;8.448;2024-03-23T15:58:27;1.00;;;0.15;;